Time;durP1;ratioP1;P1;durP2;ratioP2;P2;SDS_P1;SDS_P2;PMS_P1;PMS_P2;Temp;Humidity;BMP_temperature;BMP_pressure;BME280_temperature;BME280_humidity;BME280_pressure;Samples;Min_cycle;Max_cycle;Signal;HPM_P1;HPM_P2
2024/04/23 00:02:09;;;;;;;0.10;0.10;;;17.30;50.00;;;;;;5411971;26;20226;-51
2024/04/23 00:04:38;;;;;;;0.08;0.08;;;17.30;50.00;;;;;;5410804;26;20268;-50
2024/04/23 00:07:10;;;;;;;0.10;0.10;;;17.30;50.00;;;;;;5407088;26;20233;-49
2024/04/23 00:09:39;;;;;;;0.10;0.10;;;17.40;50.00;;;;;;5406684;26;20233;-48
2024/04/23 00:12:14;;;;;;;0.10;0.10;;;17.40;50.00;;;;;;5403910;26;20230;-51
2024/04/23 00:14:44;;;;;;;0.05;0.05;;;17.40;49.90;;;;;;5372289;26;20214;-51
2024/04/23 00:17:16;;;;;;;0.00;0.00;;;17.40;49.90;;;;;;5376234;26;20223;-50
2024/04/23 00:19:45;;;;;;;0.10;0.10;;;17.50;50.00;;;;;;5411752;26;20233;-51
2024/04/23 00:22:17;;;;;;;0.10;0.10;;;17.50;50.00;;;;;;5411872;26;20217;-50
2024/04/23 00:24:46;;;;;;;0.00;0.00;;;17.60;50.10;;;;;;5404127;26;20230;-49
2024/04/23 00:27:22;;;;;;;0.10;0.10;;;17.60;50.10;;;;;;5375159;26;20249;-49
2024/04/23 00:29:51;;;;;;;0.03;0.03;;;17.60;50.20;;;;;;5374928;26;20315;-48
2024/04/23 00:32:23;;;;;;;0.05;0.05;;;17.60;50.20;;;;;;5376018;26;20222;-50
2024/04/23 00:34:52;;;;;;;0.00;0.00;;;17.70;50.30;;;;;;5376009;26;20218;-48
2024/04/23 00:37:24;;;;;;;0.10;0.10;;;17.70;50.20;;;;;;5376373;26;20218;-50
2024/04/23 00:39:54;;;;;;;0.10;0.10;;;17.80;50.20;;;;;;5397397;26;20280;-47
2024/04/23 00:42:29;;;;;;;0.10;0.10;;;17.80;50.20;;;;;;5411461;26;20225;-47
2024/04/23 00:45:00;;;;;;;0.10;0.10;;;17.80;50.20;;;;;;5411268;26;20225;-48
2024/04/23 00:47:32;;;;;;;0.08;0.08;;;17.90;50.30;;;;;;5411334;26;20288;-48
2024/04/23 00:50:01;;;;;;;0.03;0.03;;;17.90;50.20;;;;;;5410870;26;20226;-48
2024/04/23 00:52:34;;;;;;;0.10;0.10;;;17.90;50.20;;;;;;5410807;26;20538;-49
2024/04/23 00:55:03;;;;;;;0.00;0.00;;;17.90;50.20;;;;;;5411231;26;20325;-48
2024/04/23 00:57:39;;;;;;;0.10;0.10;;;17.90;50.20;;;;;;5406936;26;20299;-51
2024/04/23 01:00:09;;;;;;;0.10;0.10;;;18.00;50.40;;;;;;5409926;26;20229;-52
2024/04/23 01:02:41;;;;;;;0.10;0.10;;;18.00;50.30;;;;;;5410998;26;20217;-52
2024/04/23 01:05:10;;;;;;;0.10;0.10;;;18.10;50.30;;;;;;5410764;26;20264;-57
2024/04/23 01:07:43;;;;;;;0.10;0.10;;;18.10;50.30;;;;;;5411401;26;20229;-49
2024/04/23 01:10:12;;;;;;;0.10;0.10;;;18.10;50.20;;;;;;5412979;26;20225;-49
2024/04/23 01:12:47;;;;;;;0.10;0.10;;;18.20;50.30;;;;;;5411588;26;21007;-51
2024/04/23 01:15:18;;;;;;;0.13;0.13;;;18.20;50.30;;;;;;5414560;26;20213;-49
2024/04/23 01:17:53;;;;;;;0.10;0.10;;;18.20;50.20;;;;;;5415166;26;20229;-51
2024/04/23 01:20:22;;;;;;;0.10;0.10;;;18.30;50.20;;;;;;5414901;26;20229;-49
2024/04/23 01:23:06;;;;;;;0.10;0.10;;;18.30;50.20;;;;;;5414806;26;20217;-55
2024/04/23 01:25:36;;;;;;;0.00;0.00;;;18.30;50.30;;;;;;5405312;26;20237;-49
2024/04/23 01:28:12;;;;;;;0.10;0.10;;;18.40;50.30;;;;;;5400809;26;20276;-56
2024/04/23 01:30:42;;;;;;;0.05;0.05;;;18.40;50.30;;;;;;5408566;26;20216;-51
2024/04/23 01:33:15;;;;;;;0.10;0.10;;;18.40;50.30;;;;;;5381733;26;20222;-48
2024/04/23 01:35:44;;;;;;;0.00;0.00;;;18.40;50.30;;;;;;5374263;26;20215;-52
2024/04/23 01:38:17;;;;;;;0.00;0.00;;;18.50;50.30;;;;;;5374392;26;20880;-50
2024/04/23 01:40:46;;;;;;;0.10;0.10;;;18.40;50.30;;;;;;5396103;26;20779;-48
2024/04/23 01:43:23;;;;;;;0.10;0.10;;;18.50;50.30;;;;;;5409586;26;20214;-47
2024/04/23 01:45:53;;;;;;;0.10;0.10;;;18.50;50.40;;;;;;5409434;26;20310;-49
2024/04/23 01:48:26;;;;;;;0.10;0.10;;;18.50;50.30;;;;;;5408709;26;20256;-48
2024/04/23 01:50:56;;;;;;;0.08;0.08;;;18.60;50.40;;;;;;5410279;26;20217;-52
2024/04/23 01:53:28;;;;;;;0.10;0.10;;;18.60;50.30;;;;;;5408324;26;20221;-49
2024/04/23 01:55:58;;;;;;;0.10;0.10;;;18.70;50.40;;;;;;5409910;26;20214;-49
2024/04/23 01:58:33;;;;;;;0.10;0.10;;;18.70;50.30;;;;;;5408669;26;20448;-50
2024/04/23 02:01:04;;;;;;;0.00;0.00;;;18.70;50.20;;;;;;5409228;26;20291;-51
2024/04/23 02:03:37;;;;;;;0.10;0.10;;;18.80;50.30;;;;;;5409989;26;20644;-47
2024/04/23 02:06:07;;;;;;;0.10;0.10;;;18.80;50.30;;;;;;5409253;26;20210;-53
2024/04/23 02:08:40;;;;;;;0.10;0.10;;;18.80;50.30;;;;;;5410122;26;20245;-54
2024/04/23 02:11:09;;;;;;;0.10;0.10;;;18.80;50.30;;;;;;5387363;21;20630;-50
2024/04/23 02:13:44;;;;;;;0.10;0.10;;;18.80;50.30;;;;;;5304255;26;20232;-52
2024/04/23 02:16:14;;;;;;;0.00;0.00;;;18.90;50.30;;;;;;5303372;26;20704;-52
2024/04/23 02:18:46;;;;;;;0.00;0.00;;;18.90;50.30;;;;;;5305056;26;20637;-50
2024/04/23 02:21:15;;;;;;;0.10;0.10;;;19.00;50.40;;;;;;5303277;27;20851;-50
2024/04/23 02:23:48;;;;;;;0.10;0.10;;;18.90;50.20;;;;;;5303723;27;20279;-54
2024/04/23 02:26:17;;;;;;;0.10;0.10;;;19.00;50.30;;;;;;5303164;27;20255;-50
2024/04/23 02:28:53;;;;;;;0.10;0.10;;;19.00;50.20;;;;;;5304092;27;20240;-49
2024/04/23 02:31:22;;;;;;;0.10;0.10;;;19.10;50.20;;;;;;5304576;27;20633;-51
2024/04/23 02:33:54;;;;;;;0.10;0.10;;;19.10;50.20;;;;;;5303470;26;20228;-52
2024/04/23 02:36:23;;;;;;;0.00;0.00;;;19.20;50.30;;;;;;5304680;26;20744;-52
2024/04/23 02:38:56;;;;;;;0.00;0.00;;;19.10;50.20;;;;;;5304008;26;20248;-51
2024/04/23 02:41:25;;;;;;;0.10;0.10;;;19.20;50.30;;;;;;5305279;26;20601;-51
2024/04/23 02:44:00;;;;;;;0.10;0.10;;;19.20;50.30;;;;;;5332946;26;20738;-51
2024/04/23 02:46:30;;;;;;;0.10;0.10;;;19.20;50.30;;;;;;5312033;26;20282;-49
2024/04/23 02:49:03;;;;;;;0.10;0.10;;;19.30;50.40;;;;;;5305469;26;20634;-53
2024/04/23 02:51:32;;;;;;;0.10;0.10;;;19.30;50.30;;;;;;5307205;27;20220;-53
2024/04/23 02:54:04;;;;;;;0.10;0.10;;;19.30;50.40;;;;;;5307532;27;20685;-51
2024/04/23 02:56:33;;;;;;;0.03;0.03;;;19.40;50.40;;;;;;5305789;27;20559;-50
2024/04/23 02:59:09;;;;;;;0.10;0.10;;;19.40;50.40;;;;;;5306593;26;20972;-50
2024/04/23 03:01:38;;;;;;;0.10;0.10;;;19.40;50.40;;;;;;5330351;26;20273;-49
2024/04/23 03:04:10;;;;;;;0.10;0.10;;;19.40;50.40;;;;;;5341630;26;20227;-51
2024/04/23 03:06:40;;;;;;;0.05;0.05;;;19.50;50.40;;;;;;5340388;26;20313;-51
2024/04/23 03:09:12;;;;;;;0.10;0.10;;;19.50;50.40;;;;;;5341863;26;20281;-51
2024/04/23 03:11:50;;;;;;;0.10;0.10;;;19.50;50.40;;;;;;5394288;21;20291;-53
2024/04/23 03:14:25;;;;;;;0.10;0.10;;;19.50;50.40;;;;;;5410233;26;20282;-51
2024/04/23 03:16:54;;;;;;;0.00;0.00;;;19.60;50.40;;;;;;5410536;26;20592;-48
2024/04/23 03:19:27;;;;;;;0.03;0.03;;;19.60;50.40;;;;;;5410820;26;20241;-48
2024/04/23 03:21:56;;;;;;;0.10;0.10;;;19.60;50.40;;;;;;5382887;26;20256;-52
2024/04/23 03:24:29;;;;;;;0.10;0.10;;;19.70;50.40;;;;;;5374137;26;20268;-49
2024/04/23 03:26:58;;;;;;;0.00;0.00;;;19.70;50.40;;;;;;5376839;26;20226;-48
2024/04/23 03:29:33;;;;;;;0.03;0.03;;;19.70;50.40;;;;;;5348751;26;20697;-52
2024/04/23 03:32:03;;;;;;;0.00;0.00;;;19.80;50.40;;;;;;5344753;26;20455;-49
2024/04/23 03:34:36;;;;;;;0.05;0.05;;;19.80;50.40;;;;;;5345512;26;20557;-52
2024/04/23 03:37:09;;;;;;;0.10;0.10;;;19.80;50.40;;;;;;5344509;26;20745;-47
2024/04/23 03:39:41;;;;;;;0.10;0.10;;;19.80;50.30;;;;;;5344913;26;20231;-56
2024/04/23 03:42:13;;;;;;;0.10;0.10;;;19.90;50.30;;;;;;5345128;26;20274;-52
2024/04/23 03:44:48;;;;;;;0.00;0.00;;;19.90;50.30;;;;;;5344480;26;20219;-48
2024/04/23 03:47:21;;;;;;;0.10;0.10;;;19.90;50.10;;;;;;5344702;26;20566;-52
2024/04/23 03:49:54;;;;;;;0.05;0.05;;;20.00;50.00;;;;;;5345081;26;20584;-50
2024/04/23 03:52:26;;;;;;;0.10;0.10;;;20.00;50.00;;;;;;5345045;26;20219;-47
2024/04/23 03:54:58;;;;;;;0.00;0.00;;;20.00;49.90;;;;;;5344844;26;20575;-50
2024/04/23 03:57:27;;;;;;;0.10;0.10;;;20.10;49.80;;;;;;5345145;26;20666;-47
2024/04/23 04:00:03;;;;;;;0.00;0.00;;;20.10;49.70;;;;;;5344965;26;20303;-51
2024/04/23 04:08:08;;;;;;;0.10;0.10;;;20.10;49.40;;;;;;5347156;26;20258;-47
2024/04/23 04:10:41;;;;;;;0.10;0.10;;;20.20;49.40;;;;;;5366316;21;20277;-51
2024/04/23 04:13:13;;;;;;;0.10;0.10;;;20.20;49.30;;;;;;5449957;26;20316;-50
2024/04/23 04:15:45;;;;;;;0.00;0.00;;;20.20;49.30;;;;;;5435213;26;20594;-50
2024/04/23 04:18:18;;;;;;;0.10;0.10;;;20.20;49.00;;;;;;5412477;26;20263;-48
2024/04/23 04:20:47;;;;;;;0.10;0.10;;;20.20;48.80;;;;;;5378797;26;20626;-51
2024/04/23 04:23:19;;;;;;;0.00;0.00;;;20.30;48.80;;;;;;5379403;26;20219;-48
2024/04/23 04:25:48;;;;;;;0.00;0.00;;;20.30;48.60;;;;;;5379087;26;20222;-51
2024/04/23 04:28:23;;;;;;;0.00;0.00;;;20.30;48.30;;;;;;5379932;26;20334;-49
2024/04/23 04:30:55;;;;;;;0.10;0.10;;;20.30;48.10;;;;;;5344447;26;20219;-50
2024/04/23 04:33:28;;;;;;;0.10;0.10;;;20.30;47.90;;;;;;5343877;26;20223;-51
2024/04/23 04:35:57;;;;;;;0.10;0.10;;;20.40;47.80;;;;;;5343803;26;20332;-50
2024/04/23 04:38:29;;;;;;;0.00;0.00;;;20.40;47.60;;;;;;5344138;26;20223;-50
2024/04/23 04:40:59;;;;;;;0.00;0.00;;;20.40;47.60;;;;;;5344326;26;20589;-49
2024/04/23 04:43:31;;;;;;;0.00;0.00;;;20.40;47.70;;;;;;5360834;26;20225;-48
2024/04/23 04:46:03;;;;;;;0.10;0.10;;;20.40;47.60;;;;;;5381747;26;20282;-50
2024/04/23 04:48:36;;;;;;;0.10;0.10;;;20.40;47.60;;;;;;5382803;26;20682;-49
2024/04/23 04:51:05;;;;;;;0.00;0.00;;;20.40;47.40;;;;;;5382689;26;20222;-49
2024/04/23 04:53:38;;;;;;;0.10;0.10;;;20.40;47.20;;;;;;5382204;26;20222;-51
2024/04/23 04:56:07;;;;;;;0.10;0.10;;;20.50;47.20;;;;;;5406789;26;20260;-48
2024/04/23 04:58:40;;;;;;;0.00;0.00;;;20.50;47.10;;;;;;5417348;26;20240;-49
2024/04/23 05:01:12;;;;;;;0.00;0.00;;;20.50;46.90;;;;;;5417634;26;20259;-49
2024/04/23 05:03:44;;;;;;;0.10;0.10;;;20.50;46.90;;;;;;5403793;26;20292;-51
2024/04/23 05:06:13;;;;;;;0.00;0.00;;;20.50;46.90;;;;;;5377294;26;20273;-50
2024/04/23 05:08:46;;;;;;;0.00;0.00;;;20.50;46.90;;;;;;5377023;26;20729;-48
2024/04/23 05:11:15;;;;;;;0.10;0.10;;;20.50;46.80;;;;;;5402971;21;20303;-47
2024/04/23 05:13:47;;;;;;;0.10;0.10;;;20.50;46.90;;;;;;5411921;26;20214;-48
2024/04/23 05:16:20;;;;;;;0.00;0.00;;;20.50;46.90;;;;;;5391621;26;20226;-48
2024/04/23 05:18:52;;;;;;;0.00;0.00;;;20.50;46.90;;;;;;5407929;26;20229;-50
2024/04/23 05:21:21;;;;;;;0.00;0.00;;;20.50;46.80;;;;;;5412160;26;20268;-48
2024/04/23 05:23:54;;;;;;;0.00;0.00;;;20.50;46.70;;;;;;5374333;26;20230;-48
2024/04/23 05:26:23;;;;;;;0.00;0.00;;;20.50;46.60;;;;;;5374065;26;20222;-50
2024/04/23 05:28:55;;;;;;;0.00;0.00;;;20.50;46.50;;;;;;5375049;26;20314;-50
2024/04/23 05:34:17;;;;;;;0.00;0.00;;;20.50;46.30;;;;;;5412941;26;20256;-48
2024/04/23 05:36:50;;;;;;;0.00;0.00;;;20.50;46.20;;;;;;5409472;26;20221;-47
2024/04/23 05:39:22;;;;;;;0.10;0.10;;;20.50;46.00;;;;;;5409224;26;20225;-48
2024/04/23 05:41:55;;;;;;;0.10;0.10;;;20.50;45.90;;;;;;5408966;26;20213;-47
2024/04/23 05:44:27;;;;;;;0.00;0.00;;;20.40;45.90;;;;;;5409022;26;20353;-46
2024/04/23 05:47:02;;;;;;;0.00;0.00;;;20.40;46.00;;;;;;5408691;26;20229;-47
2024/04/23 05:50:11;;;;;;;0.10;0.10;;;20.40;46.10;;;;;;5409938;26;20221;-47
2024/04/23 05:53:18;;;;;;;0.10;0.10;;;20.40;46.10;;;;;;5405831;26;20342;-48
2024/04/23 05:55:50;;;;;;;0.10;0.10;;;20.50;46.00;;;;;;5409206;26;20209;-49
2024/04/23 05:58:20;;;;;;;0.10;0.10;;;20.40;46.10;;;;;;5408064;26;20264;-47
2024/04/23 06:00:53;;;;;;;0.00;0.00;;;20.40;46.20;;;;;;5410050;26;20819;-48
2024/04/23 06:03:29;;;;;;;0.08;0.08;;;20.40;46.30;;;;;;5409164;26;20618;-47
2024/04/23 06:05:58;;;;;;;0.10;0.10;;;20.40;46.40;;;;;;5408962;26;20313;-48
2024/04/23 06:08:30;;;;;;;0.00;0.00;;;20.40;46.40;;;;;;5408189;26;20755;-48
2024/04/23 06:10:59;;;;;;;0.00;0.00;;;20.40;46.40;;;;;;5414941;21;20795;-50
2024/04/23 06:13:32;;;;;;;0.10;0.10;;;20.40;46.30;;;;;;5339269;26;20228;-51
2024/04/23 06:16:01;;;;;;;0.00;0.00;;;20.40;46.20;;;;;;5359758;26;20619;-49
2024/04/23 06:18:36;;;;;;;0.05;0.05;;;20.40;46.20;;;;;;5371146;26;20339;-51
2024/04/23 06:21:06;;;;;;;0.00;0.00;;;20.40;46.10;;;;;;5368210;26;20226;-50
2024/04/23 06:23:39;;;;;;;0.10;0.10;;;20.40;46.10;;;;;;5360747;26;20289;-49
2024/04/23 06:26:12;;;;;;;0.00;0.00;;;20.40;46.10;;;;;;5339542;26;20282;-53
2024/04/23 06:28:41;;;;;;;0.10;0.10;;;20.30;46.10;;;;;;5340336;26;20228;-48
2024/04/23 06:31:16;;;;;;;0.10;0.10;;;20.40;46.20;;;;;;5340485;26;20227;-47
2024/04/23 06:33:48;;;;;;;0.10;0.10;;;20.40;46.30;;;;;;5339837;26;20706;-48
2024/04/23 06:36:20;;;;;;;0.08;0.08;;;20.40;46.30;;;;;;5340029;26;20270;-47
2024/04/23 06:38:50;;;;;;;0.10;0.10;;;20.40;46.30;;;;;;5340384;26;21249;-47
2024/04/23 06:41:22;;;;;;;0.03;0.03;;;20.30;46.20;;;;;;5341973;26;20257;-47
2024/04/23 06:43:54;;;;;;;0.10;0.10;;;20.30;46.20;;;;;;5343714;26;20699;-48
2024/04/23 06:46:23;;;;;;;0.00;0.00;;;20.30;46.10;;;;;;5341611;26;20223;-47
2024/04/23 06:48:59;;;;;;;0.00;0.00;;;20.30;46.10;;;;;;5341195;26;20295;-47
2024/04/23 06:51:29;;;;;;;0.00;0.00;;;20.30;46.00;;;;;;5339920;26;20227;-48
2024/04/23 06:54:02;;;;;;;0.00;0.00;;;20.30;46.00;;;;;;5339785;26;20785;-48
2024/04/23 06:56:31;;;;;;;0.00;0.00;;;20.30;46.00;;;;;;5342365;26;20236;-54
2024/04/23 06:59:03;;;;;;;0.00;0.00;;;20.20;45.90;;;;;;5345318;26;20645;-48
2024/04/23 07:01:32;;;;;;;0.08;0.08;;;20.20;45.90;;;;;;5345469;26;20269;-49
2024/04/23 07:04:08;;;;;;;0.00;0.00;;;20.20;45.90;;;;;;5357742;26;20282;-47
2024/04/23 07:06:38;;;;;;;0.05;0.05;;;20.20;45.80;;;;;;5380571;26;20217;-48
2024/04/23 07:09:10;;;;;;;0.00;0.00;;;20.20;45.80;;;;;;5379425;26;20238;-48
2024/04/23 07:11:40;;;;;;;0.00;0.00;;;20.10;45.80;;;;;;5381091;26;20294;-48
2024/04/23 07:14:12;;;;;;;0.00;0.00;;;20.10;45.80;;;;;;5380616;26;20258;-48
2024/04/23 07:16:45;;;;;;;0.00;0.00;;;20.10;45.80;;;;;;5352464;26;20323;-47
2024/04/23 07:19:20;;;;;;;0.00;0.00;;;20.10;45.80;;;;;;5344994;26;20296;-49
2024/04/23 07:21:52;;;;;;;0.00;0.00;;;20.10;45.80;;;;;;5345336;26;20320;-48
2024/04/23 07:24:21;;;;;;;0.00;0.00;;;20.10;45.80;;;;;;5344723;26;20605;-47
2024/04/23 07:26:54;;;;;;;0.10;0.10;;;20.10;45.80;;;;;;5345717;26;20220;-48
2024/04/23 07:29:23;;;;;;;0.10;0.10;;;20.10;45.70;;;;;;5345654;26;20539;-48
2024/04/23 07:31:55;;;;;;;0.05;0.05;;;20.10;45.70;;;;;;5345414;26;20227;-52
2024/04/23 07:34:28;;;;;;;0.00;0.00;;;20.10;46.40;;;;;;5330991;26;20276;-47
2024/04/23 07:37:00;;;;;;;0.00;0.00;;;20.00;45.70;;;;;;5310669;26;20220;-48
2024/04/23 07:39:29;;;;;;;0.10;0.10;;;20.00;45.70;;;;;;5310059;27;20374;-50
2024/04/23 07:42:01;;;;;;;0.10;0.10;;;20.00;45.70;;;;;;5310715;26;20228;-49
2024/04/23 07:44:30;;;;;;;0.10;0.10;;;20.00;45.70;;;;;;5310163;27;20220;-49
2024/04/23 07:47:03;;;;;;;0.10;0.10;;;20.00;45.70;;;;;;5342163;26;20273;-49
2024/04/23 07:49:35;;;;;;;0.10;0.10;;;20.00;45.80;;;;;;5344814;26;20743;-49
2024/04/23 07:52:08;;;;;;;0.00;0.00;;;19.90;45.70;;;;;;5344649;26;20243;-49
2024/04/23 07:54:44;;;;;;;0.00;0.00;;;19.90;45.70;;;;;;5344186;26;20278;-49
2024/04/23 07:57:13;;;;;;;0.10;0.10;;;19.90;45.80;;;;;;5344949;26;20257;-48
2024/04/23 07:59:45;;;;;;;0.00;0.00;;;19.90;45.80;;;;;;5345311;26;20766;-47
2024/04/23 08:02:18;;;;;;;0.00;0.00;;;19.90;45.80;;;;;;5315813;26;20728;-49
2024/04/23 08:04:51;;;;;;;0.10;0.10;;;19.90;45.90;;;;;;5308482;26;20220;-50
2024/04/23 08:07:23;;;;;;;0.00;0.00;;;19.90;46.00;;;;;;5311469;26;20236;-49
2024/04/23 08:09:52;;;;;;;0.00;0.00;;;19.90;46.00;;;;;;5333958;26;20228;-48
2024/04/23 08:12:24;;;;;;;0.10;0.10;;;19.90;46.00;;;;;;5317694;26;20330;-47
2024/04/23 08:14:54;;;;;;;0.10;0.10;;;19.90;46.10;;;;;;5344790;26;20219;-47
2024/04/23 08:17:26;;;;;;;0.08;0.08;;;19.90;46.00;;;;;;5344592;26;20223;-50
2024/04/23 08:19:58;;;;;;;0.10;0.10;;;19.90;46.10;;;;;;5341065;26;20270;-50
2024/04/23 08:22:31;;;;;;;0.10;0.10;;;19.90;46.10;;;;;;5343156;26;20342;-48
2024/04/23 08:25:00;;;;;;;0.10;0.10;;;19.90;46.10;;;;;;5344640;26;20219;-47
2024/04/23 08:27:33;;;;;;;0.00;0.00;;;19.90;46.10;;;;;;5344056;26;20345;-47
2024/04/23 08:30:02;;;;;;;0.05;0.05;;;19.90;46.10;;;;;;5343138;26;20649;-47
2024/04/23 08:32:34;;;;;;;0.00;0.00;;;19.80;46.10;;;;;;5343443;26;20234;-48
2024/04/23 08:35:07;;;;;;;0.05;0.05;;;19.80;46.10;;;;;;5343781;26;20712;-46
2024/04/23 08:37:40;;;;;;;0.03;0.03;;;19.80;46.10;;;;;;5309889;26;20236;-46
2024/04/23 08:40:10;;;;;;;0.10;0.10;;;19.80;46.10;;;;;;5312220;26;20238;-46
2024/04/23 08:42:46;;;;;;;0.00;0.00;;;19.80;46.10;;;;;;5331522;26;20563;-49
2024/04/23 08:45:20;;;;;;;0.00;0.00;;;19.80;46.10;;;;;;5338867;26;20265;-48
2024/04/23 08:47:49;;;;;;;0.10;0.10;;;19.80;46.40;;;;;;5344533;26;20224;-48
2024/04/23 08:50:27;;;;;;;0.10;0.10;;;19.80;46.50;;;;;;5338883;26;20750;-47
2024/04/23 08:52:57;;;;;;;0.00;0.00;;;19.80;46.50;;;;;;5338509;26;20230;-48
2024/04/23 08:55:30;;;;;;;0.10;0.10;;;19.80;46.50;;;;;;5340267;26;20319;-48
2024/04/23 08:58:00;;;;;;;0.10;0.10;;;19.80;46.50;;;;;;5338416;26;20219;-47
2024/04/23 09:00:33;;;;;;;0.03;0.03;;;19.80;46.50;;;;;;5338555;26;20261;-47
2024/04/23 09:03:04;;;;;;;0.10;0.10;;;19.80;46.50;;;;;;5362552;26;20615;-49
2024/04/23 09:05:40;;;;;;;0.00;0.00;;;19.80;46.50;;;;;;5375145;26;20230;-48
2024/04/23 09:08:11;;;;;;;0.03;0.03;;;19.80;46.50;;;;;;5339105;26;20578;-48
2024/04/23 09:13:14;;;;;;;0.00;0.00;;;19.80;46.50;;;;;;5371962;26;20226;-46
2024/04/23 09:15:43;;;;;;;0.10;0.10;;;19.80;46.50;;;;;;5373394;26;20222;-46
2024/04/23 09:18:17;;;;;;;0.10;0.10;;;19.80;46.60;;;;;;5373603;26;20278;-45
2024/04/23 09:20:49;;;;;;;0.10;0.10;;;19.80;46.60;;;;;;5328328;26;20742;-49
2024/04/23 09:23:23;;;;;;;0.00;0.00;;;19.80;46.50;;;;;;5304558;27;20255;-46
2024/04/23 09:25:54;;;;;;;0.00;0.00;;;19.70;46.50;;;;;;5303314;27;20317;-50
2024/04/23 09:28:27;;;;;;;0.03;0.03;;;19.80;46.60;;;;;;5304600;27;20685;-51
2024/04/23 09:30:56;;;;;;;0.10;0.10;;;19.70;46.50;;;;;;5309677;26;20610;-48
2024/04/23 09:33:30;;;;;;;0.00;0.00;;;19.70;46.50;;;;;;5307426;27;21277;-48
2024/04/23 09:36:07;;;;;;;0.13;0.13;;;19.70;46.60;;;;;;5327644;26;20231;-48
2024/04/23 09:38:40;;;;;;;0.10;0.10;;;19.70;46.60;;;;;;5341242;26;20372;-51
2024/04/23 09:41:10;;;;;;;0.10;0.10;;;19.70;46.60;;;;;;5341442;26;20219;-49
2024/04/23 09:43:43;;;;;;;0.10;0.10;;;19.70;46.60;;;;;;5341109;26;20224;-50
2024/04/23 09:46:12;;;;;;;0.00;0.00;;;19.70;46.60;;;;;;5341880;26;20620;-49
2024/04/23 09:48:45;;;;;;;0.10;0.10;;;19.70;46.60;;;;;;5311526;26;20240;-49
2024/04/23 09:51:20;;;;;;;0.10;0.10;;;19.70;46.60;;;;;;5307200;27;20263;-46
2024/04/23 09:53:53;;;;;;;0.10;0.10;;;19.70;46.60;;;;;;5305442;27;20216;-47
2024/04/23 09:56:22;;;;;;;0.10;0.10;;;19.70;46.70;;;;;;5307405;27;20333;-50
2024/04/23 09:58:55;;;;;;;0.15;0.15;;;19.70;46.70;;;;;;5306364;27;20725;-47
2024/04/23 10:01:27;;;;;;;0.03;0.03;;;19.70;46.70;;;;;;5325905;26;20223;-47
2024/04/23 10:04:03;;;;;;;0.10;0.10;;;19.70;46.70;;;;;;5342578;26;20266;-47
2024/04/23 10:06:43;;;;;;;0.10;0.10;;;19.60;46.70;;;;;;5340975;26;20212;-46
2024/04/23 10:09:20;;;;;;;0.10;0.10;;;19.70;46.70;;;;;;5341720;26;20281;-46
2024/04/23 10:11:54;;;;;;;0.10;0.10;;;19.60;46.70;;;;;;5338769;26;20671;-50
2024/04/23 10:14:34;;;;;;;0.10;0.10;;;19.70;46.70;;;;;;5314748;26;20248;-47
2024/04/23 10:17:07;;;;;;;0.00;0.00;;;19.60;46.70;;;;;;5339973;26;20219;-48
2024/04/23 10:19:41;;;;;;;0.10;0.10;;;19.60;46.70;;;;;;5342564;26;20731;-50
2024/04/23 10:22:14;;;;;;;0.10;0.10;;;19.60;46.80;;;;;;5341659;26;20258;-47
2024/04/23 10:24:46;;;;;;;0.03;0.03;;;19.60;46.80;;;;;;5340230;26;20352;-49
2024/04/23 10:27:16;;;;;;;0.05;0.05;;;19.60;46.80;;;;;;5328129;26;20560;-45
2024/04/23 10:29:49;;;;;;;0.00;0.00;;;19.60;46.80;;;;;;5307500;27;20274;-48
2024/04/23 10:32:21;;;;;;;0.00;0.00;;;19.60;46.80;;;;;;5307290;26;20217;-46
2024/04/23 10:35:00;;;;;;;0.10;0.10;;;19.60;46.80;;;;;;5312488;26;20278;-46
2024/04/23 10:37:33;;;;;;;0.00;0.00;;;19.60;46.80;;;;;;5340990;26;20325;-46
2024/04/23 10:40:06;;;;;;;0.00;0.00;;;19.60;46.80;;;;;;5316969;26;20236;-47
2024/04/23 10:42:35;;;;;;;0.15;0.15;;;19.60;46.80;;;;;;5305838;27;20630;-46
2024/04/23 10:45:09;;;;;;;0.05;0.05;;;19.60;46.80;;;;;;5310058;26;20219;-47
2024/04/23 10:47:47;;;;;;;0.03;0.03;;;19.60;46.90;;;;;;5341463;26;20216;-48
2024/04/23 10:50:30;;;;;;;0.10;0.10;;;19.60;46.90;;;;;;5341136;26;20584;-46
2024/04/23 10:53:05;;;;;;;0.05;0.05;;;19.60;46.90;;;;;;5307113;27;20261;-46
2024/04/23 10:55:38;;;;;;;0.10;0.10;;;19.50;46.90;;;;;;5333177;26;20756;-47
2024/04/23 10:58:09;;;;;;;0.00;0.00;;;19.60;46.90;;;;;;5340326;26;20301;-47
2024/04/23 11:00:42;;;;;;;0.10;0.10;;;19.50;46.90;;;;;;5340683;26;20228;-49
2024/04/23 11:03:18;;;;;;;0.10;0.10;;;19.50;46.90;;;;;;5339589;26;20695;-48
2024/04/23 11:05:51;;;;;;;0.00;0.00;;;19.50;46.90;;;;;;5306920;27;20224;-48
2024/04/23 11:08:27;;;;;;;0.03;0.03;;;19.50;46.90;;;;;;5306184;27;20221;-51
2024/04/23 11:11:11;;;;;;;0.00;0.00;;;19.50;47.00;;;;;;5341542;21;20259;-47
2024/04/23 11:13:41;;;;;;;0.00;0.00;;;19.50;46.90;;;;;;5340916;26;20282;-48
2024/04/23 11:16:20;;;;;;;0.00;0.00;;;19.50;46.90;;;;;;5341190;26;20223;-47
2024/04/23 11:18:52;;;;;;;0.10;0.10;;;19.50;46.90;;;;;;5340083;26;20231;-49
2024/04/23 11:21:31;;;;;;;0.03;0.03;;;19.50;46.90;;;;;;5340578;26;20696;-48
2024/04/23 11:24:07;;;;;;;0.05;0.05;;;19.50;46.90;;;;;;5334843;26;20736;-51
2024/04/23 11:26:40;;;;;;;0.00;0.00;;;19.50;47.00;;;;;;5340269;26;20340;-49
2024/04/23 11:29:11;;;;;;;0.00;0.00;;;19.50;47.00;;;;;;5339493;26;21019;-46
2024/04/23 11:31:46;;;;;;;0.00;0.00;;;19.50;47.00;;;;;;5340511;26;20223;-47
2024/04/23 11:34:17;;;;;;;0.10;0.10;;;19.50;47.00;;;;;;5341099;26;20231;-48
2024/04/23 11:36:54;;;;;;;0.03;0.03;;;19.50;47.00;;;;;;5340829;26;20228;-48
2024/04/23 11:39:31;;;;;;;0.03;0.03;;;19.40;46.90;;;;;;5340202;26;20230;-46
2024/04/23 11:42:04;;;;;;;0.10;0.10;;;19.50;47.00;;;;;;5340520;26;20220;-48
2024/04/23 11:44:33;;;;;;;0.10;0.10;;;19.40;46.90;;;;;;5340508;26;20340;-47
2024/04/23 11:47:05;;;;;;;0.10;0.10;;;19.40;46.90;;;;;;5340142;26;20239;-50
2024/04/23 11:49:34;;;;;;;0.05;0.05;;;19.40;46.90;;;;;;5339635;26;20326;-47
2024/04/23 11:52:09;;;;;;;0.10;0.10;;;19.40;47.00;;;;;;5340682;26;20271;-47
2024/04/23 11:54:41;;;;;;;0.10;0.10;;;19.40;46.90;;;;;;5339567;26;20762;-50
2024/04/23 11:57:15;;;;;;;0.08;0.08;;;19.40;47.00;;;;;;5305995;27;20255;-47
2024/04/23 11:59:45;;;;;;;0.00;0.00;;;19.40;46.90;;;;;;5315572;26;20282;-53
2024/04/23 12:02:17;;;;;;;0.10;0.10;;;19.40;46.90;;;;;;5345079;26;20219;-48
2024/04/23 12:04:48;;;;;;;0.05;0.05;;;19.40;46.90;;;;;;5344519;26;20211;-51
2024/04/23 12:07:20;;;;;;;0.10;0.10;;;19.40;46.90;;;;;;5315730;26;20236;-49
2024/04/23 12:09:54;;;;;;;0.10;0.10;;;19.40;46.90;;;;;;5314021;26;20240;-48
2024/04/23 12:12:26;;;;;;;0.10;0.10;;;19.40;47.00;;;;;;5324874;21;20263;-45
2024/04/23 12:14:55;;;;;;;0.00;0.00;;;19.40;47.00;;;;;;5309501;27;20236;-48
2024/04/23 12:17:28;;;;;;;0.10;0.10;;;19.40;47.00;;;;;;5309658;27;20224;-46
2024/04/23 12:19:57;;;;;;;0.10;0.10;;;19.40;47.00;;;;;;5310319;26;20228;-45
2024/04/23 12:22:30;;;;;;;0.03;0.03;;;19.40;46.90;;;;;;5310169;27;20224;-45
2024/04/23 12:25:05;;;;;;;0.00;0.00;;;19.30;46.90;;;;;;5310956;27;20562;-46
2024/04/23 12:27:37;;;;;;;0.10;0.10;;;19.30;46.90;;;;;;5321547;26;20227;-46
2024/04/23 12:30:14;;;;;;;0.10;0.10;;;19.30;46.90;;;;;;5324597;26;20267;-46
2024/04/23 12:32:45;;;;;;;0.10;0.10;;;19.30;46.90;;;;;;5324877;26;20575;-46
2024/04/23 12:35:23;;;;;;;0.03;0.03;;;19.30;46.90;;;;;;5321835;26;20282;-46
2024/04/23 12:37:59;;;;;;;0.10;0.10;;;19.30;46.90;;;;;;5321348;26;20278;-47
2024/04/23 12:40:35;;;;;;;0.10;0.10;;;19.30;46.90;;;;;;5324541;26;20280;-48
2024/04/23 12:43:10;;;;;;;0.10;0.10;;;19.30;46.90;;;;;;5324586;26;20280;-46
2024/04/23 12:45:42;;;;;;;0.10;0.10;;;19.30;46.90;;;;;;5319496;26;20684;-46
2024/04/23 12:48:11;;;;;;;0.00;0.00;;;19.30;46.90;;;;;;5319837;26;20337;-47
2024/04/23 12:50:44;;;;;;;0.10;0.10;;;19.30;46.90;;;;;;5321685;26;20243;-47
2024/04/23 12:53:14;;;;;;;0.00;0.00;;;19.30;46.90;;;;;;5318483;26;20321;-46
2024/04/23 12:55:49;;;;;;;0.00;0.00;;;19.30;46.90;;;;;;5327461;26;20329;-48
2024/04/23 12:58:19;;;;;;;0.00;0.00;;;19.30;46.90;;;;;;5323639;26;20314;-49
2024/04/23 13:00:51;;;;;;;0.00;0.00;;;19.30;47.00;;;;;;5324111;26;20228;-47
2024/04/23 13:03:20;;;;;;;0.03;0.03;;;19.30;47.00;;;;;;5325100;26;20223;-47
2024/04/23 13:05:53;;;;;;;0.00;0.00;;;19.30;47.00;;;;;;5328218;26;20699;-47
2024/04/23 13:08:23;;;;;;;0.10;0.10;;;19.30;47.00;;;;;;5329784;26;20229;-48
2024/04/23 13:10:58;;;;;;;0.00;0.00;;;19.20;46.90;;;;;;5317629;26;20236;-47
2024/04/23 13:13:30;;;;;;;0.03;0.03;;;19.30;47.00;;;;;;5312030;27;20250;-48
2024/04/23 13:16:00;;;;;;;0.15;0.15;;;19.20;46.90;;;;;;5312124;27;20220;-46
2024/04/23 13:18:32;;;;;;;0.10;0.10;;;19.20;47.00;;;;;;5312245;26;20225;-46
2024/04/23 13:21:03;;;;;;;0.10;0.10;;;19.20;46.90;;;;;;5312266;27;20263;-46
2024/04/23 13:23:36;;;;;;;0.00;0.00;;;19.20;47.00;;;;;;5312406;27;20228;-46
2024/04/23 13:26:08;;;;;;;0.00;0.00;;;19.20;47.60;;;;;;5311356;27;20255;-45